Time;durP1;ratioP1;P1;durP2;ratioP2;P2;SDS_P1;SDS_P2;PMS_P1;PMS_P2;Temp;Humidity;BMP_temperature;BMP_pressure;BME280_temperature;BME280_humidity;BME280_pressure;Samples;Min_cycle;Max_cycle;Signal;HPM_P1;HPM_P2
2023/06/12 00:02:17;;;;;;;5.37;3.50;;;17.90;99.90;;;;;;5054301;28;20175;-82
2023/06/12 00:04:44;;;;;;;9.00;3.60;;;17.80;99.90;;;;;;5054862;28;20262;-81
2023/06/12 00:07:11;;;;;;;6.40;3.90;;;17.80;99.90;;;;;;5056043;28;20625;-80
2023/06/12 00:09:37;;;;;;;9.73;4.20;;;17.80;99.90;;;;;;5056288;28;20182;-81
2023/06/12 00:12:03;;;;;;;5.97;3.77;;;17.70;99.90;;;;;;5054243;28;20266;-81
2023/06/12 00:14:28;;;;;;;7.30;3.90;;;17.70;99.90;;;;;;5056297;28;20179;-80
2023/06/12 00:16:54;;;;;;;4.93;3.30;;;17.70;99.90;;;;;;5056410;28;20211;-80
2023/06/12 00:19:20;;;;;;;4.80;3.80;;;17.60;99.90;;;;;;5055227;28;20648;-82
2023/06/12 00:21:46;;;;;;;9.97;4.10;;;17.60;99.90;;;;;;5054581;28;20194;-80
2023/06/12 00:24:11;;;;;;;4.83;4.00;;;17.50;99.90;;;;;;5054660;28;20191;-81
2023/06/12 00:26:38;;;;;;;4.83;4.00;;;17.40;99.90;;;;;;5055077;28;20187;-81
2023/06/12 00:29:04;;;;;;;4.30;3.87;;;17.40;99.90;;;;;;5055817;28;20202;-79
2023/06/12 00:31:29;;;;;;;5.20;4.10;;;17.40;99.90;;;;;;5054776;28;20656;-81
2023/06/12 00:33:55;;;;;;;5.70;4.27;;;17.30;99.90;;;;;;5055812;28;20219;-81
2023/06/12 00:36:20;;;;;;;5.37;3.50;;;17.30;99.90;;;;;;5055781;28;20673;-80
2023/06/12 00:38:46;;;;;;;8.10;3.90;;;17.30;99.90;;;;;;5055466;28;20171;-81
2023/06/12 00:41:11;;;;;;;6.23;3.63;;;17.10;99.90;;;;;;5059766;28;20233;-81
2023/06/12 00:43:38;;;;;;;4.17;3.70;;;17.10;99.90;;;;;;5076759;28;20195;-80
2023/06/12 00:46:04;;;;;;;5.50;3.70;;;17.10;99.90;;;;;;5076228;28;20553;-81
2023/06/12 00:48:29;;;;;;;7.20;4.20;;;17.00;99.90;;;;;;5075892;28;20175;-81
2023/06/12 00:50:57;;;;;;;5.87;3.90;;;17.00;99.90;;;;;;5076073;28;20265;-80
2023/06/12 00:53:23;;;;;;;4.13;3.30;;;17.00;99.90;;;;;;5075906;28;20206;-82
2023/06/12 00:55:49;;;;;;;4.80;3.57;;;16.90;99.90;;;;;;5073973;28;20212;-81
2023/06/12 00:58:15;;;;;;;7.70;4.10;;;16.90;99.90;;;;;;5057158;28;20260;-81
2023/06/12 01:00:41;;;;;;;6.23;3.97;;;16.90;99.90;;;;;;5056314;28;20171;-81
2023/06/12 01:03:12;;;;;;;5.40;3.77;;;16.80;99.90;;;;;;5055286;28;20288;-81
2023/06/12 01:05:42;;;;;;;5.57;4.27;;;16.80;99.90;;;;;;5056406;28;20519;-81
2023/06/12 01:08:32;;;;;;;4.50;4.00;;;16.80;99.90;;;;;;5056390;28;20164;-81
2023/06/12 01:11:05;;;;;;;5.97;3.83;;;16.70;99.90;;;;;;5056435;28;20239;-81
2023/06/12 01:13:31;;;;;;;5.30;3.90;;;16.70;99.90;;;;;;5055132;28;20241;-81
2023/06/12 01:15:57;;;;;;;4.63;4.10;;;16.60;99.90;;;;;;5056471;28;20191;-81
2023/06/12 01:18:23;;;;;;;6.63;4.13;;;16.60;99.90;;;;;;5055803;28;20171;-82
2023/06/12 01:20:49;;;;;;;4.30;3.67;;;16.50;99.90;;;;;;5055959;28;20175;-80
2023/06/12 01:23:15;;;;;;;5.40;3.97;;;16.40;99.90;;;;;;5055470;28;20222;-81
2023/06/12 01:25:52;;;;;;;4.43;3.87;;;16.50;99.90;;;;;;5056720;28;20517;-81
2023/06/12 01:28:53;;;;;;;5.10;4.30;;;16.40;99.90;;;;;;5054804;28;20167;-80
2023/06/12 01:31:21;;;;;;;4.90;3.73;;;16.30;99.90;;;;;;5056057;28;20262;-81
2023/06/12 01:34:12;;;;;;;4.00;3.60;;;16.30;99.90;;;;;;5062837;28;20188;-80
2023/06/12 01:36:43;;;;;;;5.57;4.10;;;16.30;99.90;;;;;;5081200;28;20251;-78
2023/06/12 01:39:11;;;;;;;4.10;3.70;;;16.30;99.90;;;;;;5081335;28;20178;-80
2023/06/12 01:41:38;;;;;;;4.33;3.70;;;16.30;99.90;;;;;;5062576;28;20172;-81
2023/06/12 01:44:10;;;;;;;4.40;3.90;;;16.20;99.90;;;;;;5058636;28;20199;-81
2023/06/12 01:46:36;;;;;;;4.77;3.93;;;16.20;99.90;;;;;;5059604;28;20178;-81
2023/06/12 01:49:06;;;;;;;4.97;4.10;;;16.20;99.90;;;;;;5059459;28;20274;-81
2023/06/12 01:51:31;;;;;;;6.33;3.90;;;16.10;99.90;;;;;;5058046;28;20271;-81
2023/06/12 01:53:57;;;;;;;4.60;3.87;;;16.10;99.90;;;;;;5059096;28;20231;-81
2023/06/12 01:56:25;;;;;;;5.73;4.00;;;16.00;99.90;;;;;;5059613;28;20292;-81
2023/06/12 01:58:52;;;;;;;5.30;4.33;;;16.00;1.00;;;;;;5057361;28;20182;-81
2023/06/12 02:01:18;;;;;;;5.43;4.27;;;16.00;1.00;;;;;;5059385;28;20545;-81
2023/06/12 02:03:47;;;;;;;8.13;3.93;;;15.90;1.00;;;;;;5058764;28;20257;-81
2023/06/12 02:06:17;;;;;;;5.03;3.97;;;15.90;1.00;;;;;;5058065;28;20271;-81
2023/06/12 02:08:43;;;;;;;6.13;4.03;;;15.90;1.00;;;;;;5057880;28;20617;-81
2023/06/12 02:11:09;;;;;;;4.50;3.83;;;15.90;1.00;;;;;;5059057;28;20183;-81
2023/06/12 02:13:36;;;;;;;7.43;4.10;;;15.80;1.00;;;;;;5057844;28;20199;-81
2023/06/12 02:16:05;;;;;;;5.03;3.90;;;15.80;1.00;;;;;;5059569;28;20257;-80
2023/06/12 02:18:31;;;;;;;4.77;3.80;;;15.80;1.00;;;;;;5057793;28;20556;-82
2023/06/12 02:20:56;;;;;;;6.00;4.00;;;15.80;1.00;;;;;;5057475;28;20180;-81
2023/06/12 02:23:22;;;;;;;4.60;4.07;;;15.70;1.00;;;;;;5058806;28;20187;-81
2023/06/12 02:25:47;;;;;;;5.77;3.97;;;15.70;1.00;;;;;;5057820;28;20183;-81
2023/06/12 02:28:13;;;;;;;8.00;4.03;;;15.70;1.00;;;;;;5059093;28;20270;-81
2023/06/12 02:30:38;;;;;;;5.87;4.10;;;15.70;1.00;;;;;;5057761;28;20202;-81
2023/06/12 02:33:09;;;;;;;4.70;4.27;;;15.80;1.00;;;;;;5058158;28;20227;-81
2023/06/12 02:35:38;;;;;;;4.40;4.00;;;15.70;1.00;;;;;;5058083;28;20188;-80
2023/06/12 02:38:03;;;;;;;4.10;3.70;;;15.60;1.00;;;;;;5059070;28;20207;-81
2023/06/12 02:40:29;;;;;;;4.57;4.03;;;15.60;1.00;;;;;;5059478;28;20637;-81
2023/06/12 02:42:54;;;;;;;5.47;3.83;;;15.60;1.00;;;;;;5058688;28;20664;-81
2023/06/12 02:45:23;;;;;;;3.77;3.43;;;15.60;1.00;;;;;;5058328;28;20206;-80
2023/06/12 02:47:49;;;;;;;5.43;4.00;;;15.60;1.00;;;;;;5058099;28;20206;-80
2023/06/12 02:50:16;;;;;;;5.13;4.20;;;15.50;1.00;;;;;;5057115;28;20195;-81
2023/06/12 02:52:42;;;;;;;6.73;4.13;;;15.50;1.00;;;;;;5057746;28;20191;-81
2023/06/12 02:55:08;;;;;;;4.23;3.73;;;15.50;1.00;;;;;;5058142;28;20198;-80
2023/06/12 02:57:34;;;;;;;4.33;3.70;;;15.50;1.00;;;;;;5058158;28;20694;-80
2023/06/12 03:00:00;;;;;;;4.13;3.60;;;15.50;1.00;;;;;;5058127;28;20644;-81
2023/06/12 03:02:25;;;;;;;5.07;4.17;;;15.40;1.00;;;;;;5058309;28;20251;-81
2023/06/12 03:04:52;;;;;;;5.23;4.20;;;15.40;1.00;;;;;;5056719;28;20305;-80
2023/06/12 03:07:18;;;;;;;4.87;4.17;;;15.40;1.00;;;;;;5058557;28;20210;-81
2023/06/12 03:09:44;;;;;;;4.43;3.30;;;15.40;1.00;;;;;;5058462;28;20168;-81
2023/06/12 03:12:10;;;;;;;5.10;3.73;;;15.40;1.00;;;;;;5056685;28;20203;-81
2023/06/12 03:14:36;;;;;;;5.80;4.23;;;15.40;1.00;;;;;;5057830;28;20171;-81
2023/06/12 03:17:02;;;;;;;5.57;3.70;;;15.30;1.00;;;;;;5058093;28;20266;-81
2023/06/12 03:19:28;;;;;;;4.70;4.20;;;15.30;1.00;;;;;;5056147;28;20191;-81
2023/06/12 03:21:53;;;;;;;5.20;3.93;;;15.30;1.00;;;;;;5057098;28;20172;-80
2023/06/12 03:24:20;;;;;;;4.43;3.67;;;15.20;1.00;;;;;;5055882;28;20203;-81
2023/06/12 03:26:46;;;;;;;7.50;4.00;;;15.20;1.00;;;;;;5057517;28;20736;-80
2023/06/12 03:29:12;;;;;;;7.37;3.73;;;15.20;1.00;;;;;;5057436;28;20259;-81
2023/06/12 03:31:38;;;;;;;6.50;3.80;;;15.20;1.00;;;;;;5056486;28;20667;-81
2023/06/12 03:34:04;;;;;;;4.13;3.67;;;15.20;1.00;;;;;;5056149;28;20198;-81
2023/06/12 03:36:33;;;;;;;10.57;4.13;;;15.10;1.00;;;;;;5057259;28;20340;-79
2023/06/12 03:38:59;;;;;;;5.60;3.80;;;15.10;1.00;;;;;;5056652;28;20199;-81
2023/06/12 03:41:27;;;;;;;6.07;4.23;;;15.10;1.00;;;;;;5058550;28;20168;-81
2023/06/12 03:43:52;;;;;;;4.13;3.73;;;15.10;1.00;;;;;;5056829;28;20207;-80
2023/06/12 03:46:18;;;;;;;5.13;4.10;;;15.10;1.00;;;;;;5056056;28;20537;-81
2023/06/12 03:48:43;;;;;;;7.00;4.00;;;15.10;1.00;;;;;;5057719;28;20206;-80
2023/06/12 03:51:09;;;;;;;5.63;4.30;;;15.10;1.00;;;;;;5058058;28;20191;-81
2023/06/12 03:53:37;;;;;;;5.93;3.87;;;15.10;1.00;;;;;;5056311;28;20575;-81
2023/06/12 03:56:02;;;;;;;6.43;4.07;;;15.00;1.00;;;;;;5057780;28;20195;-81
2023/06/12 03:58:28;;;;;;;5.97;4.37;;;15.00;1.00;;;;;;5036737;28;20187;-81
2023/06/12 04:00:53;;;;;;;4.90;3.73;;;15.00;1.00;;;;;;5040551;28;20198;-81
2023/06/12 04:03:21;;;;;;;6.40;3.93;;;15.00;1.00;;;;;;5036645;28;20200;-81
2023/06/12 04:05:48;;;;;;;4.27;3.60;;;15.00;1.00;;;;;;5037078;28;20168;-81
2023/06/12 04:08:13;;;;;;;5.00;4.27;;;15.00;1.00;;;;;;5037073;28;20175;-80
2023/06/12 04:10:40;;;;;;;5.77;4.10;;;15.00;1.00;;;;;;5035314;28;20728;-81
2023/06/12 04:13:06;;;;;;;4.67;3.93;;;15.00;1.00;;;;;;5044559;28;20199;-81
2023/06/12 04:15:31;;;;;;;4.30;3.90;;;15.00;1.00;;;;;;5056796;28;20570;-81
2023/06/12 04:17:57;;;;;;;9.63;3.90;;;15.00;1.00;;;;;;5055124;28;20551;-81
2023/06/12 04:20:23;;;;;;;6.10;4.00;;;15.10;1.00;;;;;;5055839;28;20212;-80
2023/06/12 04:22:50;;;;;;;5.00;4.30;;;15.00;1.00;;;;;;5055388;28;20198;-81
2023/06/12 04:25:15;;;;;;;6.40;4.30;;;15.00;1.00;;;;;;5055444;28;20171;-80
2023/06/12 04:27:42;;;;;;;5.83;3.87;;;15.10;1.00;;;;;;5055663;28;20179;-81
2023/06/12 04:30:09;;;;;;;4.87;3.87;;;15.00;1.00;;;;;;5054610;28;20179;-81
2023/06/12 04:32:34;;;;;;;7.07;4.23;;;15.10;1.00;;;;;;5055514;28;20210;-81
2023/06/12 04:35:01;;;;;;;7.43;4.47;;;15.10;1.00;;;;;;5055688;28;20183;-80
2023/06/12 04:37:27;;;;;;;6.93;3.80;;;15.10;1.00;;;;;;5055393;28;20562;-80
2023/06/12 04:39:53;;;;;;;7.00;4.07;;;15.10;1.00;;;;;;5055132;28;20258;-81
2023/06/12 04:42:19;;;;;;;4.87;3.90;;;15.10;1.00;;;;;;5055961;28;20187;-81
2023/06/12 04:44:46;;;;;;;5.80;4.07;;;15.10;1.00;;;;;;5056229;28;20202;-81
2023/06/12 04:47:14;;;;;;;5.97;4.03;;;15.10;1.00;;;;;;5055566;28;20228;-81
2023/06/12 04:49:40;;;;;;;5.27;4.07;;;15.20;1.00;;;;;;5055921;28;20222;-80
2023/06/12 04:52:07;;;;;;;5.30;4.20;;;15.20;1.00;;;;;;5054098;28;20175;-80
2023/06/12 04:54:35;;;;;;;4.57;4.00;;;15.20;1.00;;;;;;5055837;28;20700;-81
2023/06/12 04:57:16;;;;;;;5.77;4.17;;;15.20;1.00;;;;;;5059737;28;20203;-79
2023/06/12 04:59:45;;;;;;;5.70;4.30;;;15.30;1.00;;;;;;5064872;28;20171;-80
2023/06/12 05:02:11;;;;;;;4.73;3.80;;;15.30;1.00;;;;;;5066258;28;20202;-80
2023/06/12 05:04:40;;;;;;;4.50;3.67;;;15.30;1.00;;;;;;5073134;28;20167;-79
2023/06/12 05:07:14;;;;;;;5.60;4.67;;;15.40;1.00;;;;;;5077209;28;20640;-78
2023/06/12 05:09:40;;;;;;;5.83;3.57;;;15.40;1.00;;;;;;5075202;28;20251;-80
2023/06/12 05:12:06;;;;;;;7.93;4.50;;;15.40;1.00;;;;;;5061642;28;20232;-79
2023/06/12 05:14:34;;;;;;;5.43;3.93;;;15.50;1.00;;;;;;5057095;28;20167;-80
2023/06/12 05:17:00;;;;;;;4.63;4.13;;;15.50;1.00;;;;;;5056391;28;20203;-80
2023/06/12 05:19:26;;;;;;;5.20;4.13;;;15.60;1.00;;;;;;5055241;28;20203;-79
2023/06/12 05:21:52;;;;;;;6.00;3.97;;;15.60;1.00;;;;;;5055214;28;20174;-80
2023/06/12 05:24:17;;;;;;;6.00;4.20;;;15.70;1.00;;;;;;5055238;28;20211;-82
2023/06/12 05:26:43;;;;;;;5.30;4.23;;;15.70;1.00;;;;;;5053279;28;20559;-80
2023/06/12 05:29:09;;;;;;;4.07;3.67;;;15.80;1.00;;;;;;5062381;28;20176;-81
2023/06/12 05:31:35;;;;;;;6.97;4.47;;;15.80;1.00;;;;;;5058726;28;20175;-81
2023/06/12 05:34:00;;;;;;;5.00;4.17;;;15.90;1.00;;;;;;5059126;28;20654;-81
2023/06/12 05:36:26;;;;;;;5.60;4.70;;;15.90;1.00;;;;;;5057733;28;20211;-81
2023/06/12 05:38:52;;;;;;;7.10;4.37;;;16.00;1.00;;;;;;5058568;28;20179;-82
2023/06/12 05:41:17;;;;;;;7.93;4.20;;;16.10;1.00;;;;;;5059557;28;20182;-81
2023/06/12 05:43:45;;;;;;;6.63;4.10;;;16.10;1.00;;;;;;5057852;28;20200;-82
2023/06/12 05:46:15;;;;;;;5.10;4.33;;;16.20;1.00;;;;;;5061727;28;20172;-81
2023/06/12 05:48:40;;;;;;;5.90;4.10;;;16.30;1.00;;;;;;5059120;28;20172;-79
2023/06/12 05:51:07;;;;;;;4.07;3.67;;;16.40;1.00;;;;;;5057138;28;20656;-78
2023/06/12 05:53:33;;;;;;;5.83;4.20;;;16.40;1.00;;;;;;5057152;28;20206;-79
2023/06/12 05:55:59;;;;;;;6.00;3.87;;;16.50;1.00;;;;;;5058518;28;20641;-79
2023/06/12 05:58:25;;;;;;;6.83;3.93;;;16.60;1.00;;;;;;5056874;28;20176;-79
2023/06/12 06:00:52;;;;;;;5.73;4.07;;;16.70;1.00;;;;;;5058577;28;20163;-77
2023/06/12 06:03:19;;;;;;;5.77;4.07;;;16.80;1.00;;;;;;5058580;28;20216;-79
2023/06/12 06:05:48;;;;;;;4.73;3.77;;;16.90;1.00;;;;;;5057425;28;20533;-79
2023/06/12 06:08:13;;;;;;;5.17;4.67;;;16.90;1.00;;;;;;5057904;28;20168;-79
2023/06/12 06:10:39;;;;;;;6.00;4.23;;;17.00;1.00;;;;;;5058881;28;20177;-78
2023/06/12 06:13:05;;;;;;;4.97;3.50;;;17.10;1.00;;;;;;5058285;28;20188;-79
2023/06/12 06:15:30;;;;;;;6.03;4.00;;;17.20;1.00;;;;;;5059302;28;20504;-79
2023/06/12 06:17:56;;;;;;;5.80;4.10;;;17.30;1.00;;;;;;5058334;28;20254;-79
2023/06/12 06:20:22;;;;;;;5.97;3.73;;;17.40;1.00;;;;;;5058559;28;20258;-79
2023/06/12 06:22:47;;;;;;;5.43;3.87;;;17.60;1.00;;;;;;5060033;28;20218;-80
2023/06/12 06:25:15;;;;;;;4.10;3.70;;;17.70;1.00;;;;;;5061545;28;20524;-79
2023/06/12 06:27:41;;;;;;;4.63;3.67;;;17.80;1.00;;;;;;5062527;28;20175;-79
2023/06/12 06:30:06;;;;;;;7.10;4.03;;;17.90;1.00;;;;;;5061673;28;20171;-77
2023/06/12 06:32:32;;;;;;;4.30;3.90;;;18.10;1.00;;;;;;5061502;28;20270;-78
2023/06/12 06:34:57;;;;;;;4.77;3.90;;;18.20;1.00;;;;;;5062450;28;20175;-80
2023/06/12 06:37:23;;;;;;;4.77;4.27;;;18.30;1.00;;;;;;5062339;28;20672;-80
2023/06/12 06:39:49;;;;;;;5.40;4.20;;;18.40;1.00;;;;;;5062207;28;20172;-80
2023/06/12 06:42:14;;;;;;;7.47;3.90;;;18.60;1.00;;;;;;5060405;28;20176;-77
2023/06/12 06:44:40;;;;;;;5.07;4.30;;;18.60;1.00;;;;;;5061436;28;20168;-80
2023/06/12 06:47:10;;;;;;;6.60;3.90;;;18.80;99.90;;;;;;5062131;28;20182;-79
2023/06/12 06:49:36;;;;;;;6.27;4.00;;;18.90;99.90;;;;;;5062236;28;20191;-79
2023/06/12 06:52:01;;;;;;;8.33;4.50;;;19.00;99.90;;;;;;5064254;28;20171;-79
2023/06/12 06:54:27;;;;;;;5.10;4.00;;;19.10;99.90;;;;;;5064076;28;20171;-80
2023/06/12 06:56:52;;;;;;;5.67;3.63;;;19.20;99.90;;;;;;5060837;28;20573;-79
2023/06/12 06:59:18;;;;;;;5.37;3.93;;;19.20;99.90;;;;;;5062222;28;20201;-79
2023/06/12 07:01:43;;;;;;;5.53;3.60;;;19.40;99.90;;;;;;5059393;28;20178;-79
2023/06/12 07:04:09;;;;;;;3.70;3.40;;;19.60;99.90;;;;;;5061269;28;20576;-77
2023/06/12 07:06:35;;;;;;;4.23;3.83;;;19.60;99.90;;;;;;5059321;28;20177;-79
2023/06/12 07:09:01;;;;;;;8.53;4.10;;;19.80;99.90;;;;;;5061540;28;20175;-79
2023/06/12 07:11:27;;;;;;;7.53;4.30;;;19.90;99.90;;;;;;5059577;28;20516;-78
2023/06/12 07:13:53;;;;;;;7.57;4.03;;;20.00;99.90;;;;;;5059999;28;20263;-78
2023/06/12 07:16:19;;;;;;;8.03;4.23;;;20.10;99.90;;;;;;5060857;28;20219;-79
2023/06/12 07:18:45;;;;;;;5.27;3.60;;;20.20;99.90;;;;;;5059739;28;20183;-79
2023/06/12 07:21:10;;;;;;;5.93;3.90;;;20.20;99.90;;;;;;5060444;28;20175;-78
2023/06/12 07:23:36;;;;;;;5.20;4.30;;;20.40;99.90;;;;;;5061851;28;20248;-79
2023/06/12 07:26:02;;;;;;;5.80;3.70;;;20.50;99.90;;;;;;5059621;28;20274;-79
2023/06/12 07:28:27;;;;;;;5.13;3.60;;;20.60;99.90;;;;;;5059711;28;20180;-79
2023/06/12 07:30:53;;;;;;;7.90;4.00;;;20.60;99.90;;;;;;5060426;28;20198;-79
2023/06/12 07:33:18;;;;;;;6.53;3.57;;;20.70;48.70;;;;;;5058454;28;20211;-79
2023/06/12 07:35:44;;;;;;;5.07;4.07;;;20.80;24.30;;;;;;5060658;28;20176;-79
2023/06/12 07:38:09;;;;;;;5.20;3.87;;;20.90;1.00;;;;;;5058796;28;20668;-80
2023/06/12 07:40:35;;;;;;;6.33;4.00;;;21.00;1.00;;;;;;5059874;28;20190;-79
2023/06/12 07:43:01;;;;;;;4.70;3.97;;;21.10;1.00;;;;;;5061323;28;20187;-80
2023/06/12 07:45:26;;;;;;;4.90;3.97;;;21.20;1.00;;;;;;5060082;28;20179;-79
2023/06/12 07:47:54;;;;;;;3.97;3.57;;;21.30;1.00;;;;;;5060935;28;20191;-79
2023/06/12 07:50:20;;;;;;;5.03;3.77;;;21.20;1.00;;;;;;5060040;28;20199;-79
2023/06/12 07:52:46;;;;;;;4.13;3.73;;;21.50;1.00;;;;;;5061329;28;20755;-80
2023/06/12 07:55:14;;;;;;;4.97;3.90;;;21.60;1.00;;;;;;5062542;28;20210;-78
2023/06/12 07:57:40;;;;;;;6.50;3.90;;;21.60;1.00;;;;;;5062305;28;20206;-79
2023/06/12 08:00:07;;;;;;;5.20;3.50;;;21.70;1.00;;;;;;5060341;28;20176;-79
2023/06/12 08:02:33;;;;;;;4.13;3.10;;;21.90;1.00;;;;;;5061084;28;20202;-79
2023/06/12 08:04:59;;;;;;;9.40;3.73;;;21.90;1.00;;;;;;5061512;28;20172;-80
2023/06/12 08:07:26;;;;;;;6.20;4.13;;;22.00;1.00;;;;;;5063410;28;20190;-79
2023/06/12 08:09:52;;;;;;;6.53;4.27;;;22.10;1.00;;;;;;5061697;28;20186;-80
2023/06/12 08:12:18;;;;;;;5.90;3.90;;;22.30;1.00;;;;;;5062780;28;20222;-80
2023/06/12 08:14:47;;;;;;;7.40;3.70;;;22.20;1.00;;;;;;5062473;28;20223;-79
2023/06/12 08:17:13;;;;;;;4.30;3.63;;;22.40;1.00;;;;;;5062252;28;20668;-80
2023/06/12 08:19:40;;;;;;;3.77;3.43;;;22.40;1.00;;;;;;5062672;28;20179;-80
2023/06/12 08:22:07;;;;;;;6.87;3.80;;;22.40;1.00;;;;;;5063978;28;20172;-79
2023/06/12 08:24:35;;;;;;;8.17;3.90;;;22.50;1.00;;;;;;5062806;28;20180;-79
2023/06/12 08:27:02;;;;;;;4.60;3.97;;;22.50;1.00;;;;;;5063490;28;20175;-80
2023/06/12 08:29:28;;;;;;;5.17;3.60;;;22.70;1.00;;;;;;5065004;28;20247;-79
2023/06/12 08:31:54;;;;;;;4.23;3.63;;;22.70;1.00;;;;;;5063856;28;20179;-80
2023/06/12 08:34:24;;;;;;;5.40;3.70;;;22.70;1.00;;;;;;5064925;28;20211;-79
2023/06/12 08:36:52;;;;;;;5.90;3.90;;;22.80;1.00;;;;;;5075878;28;20211;-78
2023/06/12 08:39:18;;;;;;;5.93;3.77;;;22.90;1.00;;;;;;5077039;28;20191;-78
2023/06/12 08:42:05;;;;;;;5.07;3.77;;;23.10;1.00;;;;;;5068199;28;20183;-80
2023/06/12 08:44:33;;;;;;;5.50;3.93;;;23.20;1.00;;;;;;5060796;28;20552;-79
2023/06/12 08:47:03;;;;;;;5.33;3.47;;;23.30;99.90;;;;;;5059824;28;20210;-79
2023/06/12 08:49:30;;;;;;;4.83;4.37;;;23.40;99.90;;;;;;5059344;28;20213;-79
2023/06/12 08:51:56;;;;;;;6.13;4.17;;;23.50;99.90;;;;;;5060870;28;20176;-80
2023/06/12 08:54:22;;;;;;;7.53;3.80;;;23.60;99.90;;;;;;5060392;28;20644;-80
2023/06/12 08:56:48;;;;;;;4.57;4.00;;;23.70;99.90;;;;;;5060793;28;20215;-78
2023/06/12 08:59:15;;;;;;;5.47;3.87;;;23.70;99.90;;;;;;5060215;28;20168;-79
2023/06/12 09:01:41;;;;;;;5.90;4.20;;;23.80;99.90;;;;;;5058867;28;20202;-79
2023/06/12 09:04:14;;;;;;;5.63;3.97;;;23.80;99.90;;;;;;5059635;28;20199;-79
2023/06/12 09:06:40;;;;;;;4.57;3.97;;;23.90;99.90;;;;;;5062289;28;20217;-79
2023/06/12 09:09:05;;;;;;;6.23;4.27;;;24.10;99.90;;;;;;5060755;28;20186;-79
2023/06/12 09:11:35;;;;;;;5.80;4.03;;;24.20;99.90;;;;;;5058690;28;20179;-80
2023/06/12 09:14:01;;;;;;;3.90;3.23;;;24.30;99.90;;;;;;5059917;28;20207;-80
2023/06/12 09:16:27;;;;;;;4.53;3.63;;;24.30;99.90;;;;;;5060010;28;20203;-79
2023/06/12 09:18:54;;;;;;;5.43;3.77;;;24.40;99.90;;;;;;5062105;28;20172;-79
2023/06/12 09:21:23;;;;;;;4.53;3.87;;;24.50;99.90;;;;;;5060043;28;20277;-79
2023/06/12 09:23:54;;;;;;;7.43;3.77;;;24.50;99.90;;;;;;5059103;28;20227;-79
2023/06/12 09:26:21;;;;;;;4.80;3.53;;;24.50;99.90;;;;;;5057537;28;20582;-79
2023/06/12 09:28:50;;;;;;;6.32;3.67;;;24.70;39.80;;;;;;5058545;28;20199;-80
2023/06/12 09:31:15;;;;;;;5.07;3.97;;;24.80;99.90;;;;;;5057887;28;20197;-79
2023/06/12 09:33:41;;;;;;;6.30;3.90;;;24.90;65.30;;;;;;5057837;28;20260;-79
2023/06/12 09:36:10;;;;;;;7.00;4.00;;;24.90;25.00;;;;;;5057697;28;20211;-79
2023/06/12 09:38:36;;;;;;;4.53;3.90;;;25.00;1.00;;;;;;5058892;28;20176;-79
2023/06/12 09:41:04;;;;;;;5.20;3.70;;;25.10;1.00;;;;;;5056449;28;20175;-80
2023/06/12 09:43:31;;;;;;;6.95;3.67;;;25.20;1.00;;;;;;5059524;28;20199;-80
2023/06/12 09:45:58;;;;;;;5.00;3.53;;;25.30;1.00;;;;;;5057683;28;20208;-79
2023/06/12 09:48:24;;;;;;;5.88;4.15;;;25.30;1.00;;;;;;5058612;28;20678;-79
2023/06/12 09:50:50;;;;;;;4.35;3.38;;;25.40;1.00;;;;;;5058981;28;20214;-79
2023/06/12 09:53:20;;;;;;;5.05;3.60;;;25.50;1.00;;;;;;5059459;28;20184;-80
2023/06/12 09:55:47;;;;;;;5.70;3.90;;;25.60;1.00;;;;;;5060378;28;20178;-80
2023/06/12 09:58:17;;;;;;;4.70;3.45;;;25.80;1.00;;;;;;5061810;28;20225;-79
2023/06/12 10:00:43;;;;;;;9.77;3.90;;;25.70;1.00;;;;;;5062069;28;20172;-80
2023/06/12 10:03:14;;;;;;;5.70;3.67;;;25.80;1.00;;;;;;5061855;28;20191;-80
2023/06/12 10:05:50;;;;;;;7.05;3.90;;;25.90;1.00;;;;;;5063699;28;20219;-81
2023/06/12 10:08:17;;;;;;;3.65;3.35;;;26.00;1.00;;;;;;5062078;28;20163;-79
2023/06/12 10:10:44;;;;;;;3.77;3.37;;;26.00;1.00;;;;;;5064159;28;20164;-80
2023/06/12 10:13:11;;;;;;;3.95;3.55;;;26.10;99.90;;;;;;5062567;28;20199;-80
2023/06/12 10:15:39;;;;;;;5.30;3.90;;;26.20;99.90;;;;;;5061930;28;20547;-79
2023/06/12 10:18:08;;;;;;;4.95;3.72;;;26.30;99.90;;;;;;5062496;28;20184;-79
2023/06/12 10:20:34;;;;;;;4.10;3.70;;;26.30;99.90;;;;;;5060144;28;20172;-80
2023/06/12 10:23:02;;;;;;;4.85;3.03;;;26.40;99.90;;;;;;5062339;28;20206;-79
2023/06/12 10:25:29;;;;;;;5.03;3.65;;;26.40;1.00;;;;;;5062104;28;20250;-79
2023/06/12 10:27:55;;;;;;;6.97;3.05;;;26.60;1.00;;;;;;5060727;28;20176;-80
2023/06/12 10:30:21;;;;;;;5.47;3.38;;;26.80;1.00;;;;;;5061757;28;20572;-79
2023/06/12 10:32:46;;;;;;;4.03;3.58;;;26.70;99.90;;;;;;5063260;28;20200;-80
2023/06/12 10:35:13;;;;;;;4.65;3.38;;;26.80;1.00;;;;;;5061543;28;20195;-80
2023/06/12 10:37:47;;;;;;;4.68;3.40;;;26.80;1.00;;;;;;5059619;28;20706;-78
2023/06/12 10:40:23;;;;;;;7.60;3.50;;;26.90;1.00;;;;;;5057597;28;20548;-78
2023/06/12 10:42:51;;;;;;;4.30;3.58;;;27.00;99.90;;;;;;5058556;28;20191;-78
2023/06/12 10:45:19;;;;;;;8.60;3.35;;;27.00;99.90;;;;;;5057827;28;20191;-78
2023/06/12 10:48:03;;;;;;;4.32;3.38;;;27.10;99.90;;;;;;5059405;28;20195;-77
2023/06/12 10:50:30;;;;;;;4.15;3.22;;;27.10;1.00;;;;;;5059630;28;20261;-77
2023/06/12 10:52:59;;;;;;;5.10;3.45;;;27.20;99.90;;;;;;5059791;28;20198;-77
2023/06/12 10:55:27;;;;;;;3.83;3.40;;;27.30;99.90;;;;;;5060132;28;20179;-77
2023/06/12 10:57:55;;;;;;;3.38;3.05;;;27.20;10.10;;;;;;5059685;28;20206;-78
2023/06/12 11:00:29;;;;;;;6.20;3.90;;;27.20;28.40;;;;;;5058046;28;20202;-78
2023/06/12 11:02:59;;;;;;;5.68;3.72;;;27.30;95.90;;;;;;5056624;28;20195;-78
2023/06/12 11:05:26;;;;;;;4.25;3.55;;;27.40;99.90;;;;;;5059588;28;20192;-78
2023/06/12 11:07:55;;;;;;;4.82;3.25;;;27.50;1.00;;;;;;5059033;28;20170;-78
2023/06/12 11:10:21;;;;;;;5.28;3.70;;;27.60;1.00;;;;;;5059588;28;20278;-79
2023/06/12 11:12:48;;;;;;;4.40;3.28;;;27.70;1.00;;;;;;5057861;28;20227;-79
2023/06/12 11:15:14;;;;;;;4.30;3.22;;;27.70;99.90;;;;;;5059331;28;20667;-78
2023/06/12 11:17:40;;;;;;;3.83;3.53;;;27.70;99.90;;;;;;5058459;28;20195;-78
2023/06/12 11:20:06;;;;;;;4.13;3.72;;;27.80;1.00;;;;;;5061232;28;20672;-79
2023/06/12 11:22:31;;;;;;;3.75;3.42;;;27.80;99.90;;;;;;5062706;28;20199;-78
2023/06/12 11:25:01;;;;;;;4.00;3.58;;;27.70;99.90;;;;;;5057559;28;20224;-78
2023/06/12 11:27:27;;;;;;;4.32;3.30;;;27.70;99.90;;;;;;5059709;28;20199;-78
2023/06/12 11:29:52;;;;;;;5.43;3.40;;;27.70;1.00;;;;;;5057474;28;20210;-78
2023/06/12 11:32:19;;;;;;;6.13;3.63;;;27.70;1.00;;;;;;5058201;28;20191;-78
2023/06/12 11:34:46;;;;;;;5.82;4.03;;;27.70;99.90;;;;;;5057464;28;20172;-78
2023/06/12 11:37:19;;;;;;;4.15;3.60;;;27.80;6.90;;;;;;5059590;28;20257;-78
2023/06/12 11:39:45;;;;;;;3.67;3.38;;;27.60;99.90;;;;;;5061362;28;20171;-78
2023/06/12 11:42:11;;;;;;;5.05;3.85;;;27.60;99.90;;;;;;5063358;28;20202;-78
2023/06/12 11:44:40;;;;;;;5.15;3.50;;;27.70;1.00;;;;;;5062197;28;20171;-78
2023/06/12 11:47:06;;;;;;;5.05;3.83;;;27.80;1.00;;;;;;5060173;28;20286;-78
2023/06/12 11:49:34;;;;;;;4.35;3.95;;;28.00;99.90;;;;;;5060288;28;20202;-78
2023/06/12 11:52:00;;;;;;;5.95;3.65;;;28.10;99.90;;;;;;5063413;28;20182;-78
2023/06/12 11:54:26;;;;;;;7.07;3.72;;;28.10;99.90;;;;;;5063532;28;20175;-78
2023/06/12 11:56:52;;;;;;;4.53;3.83;;;28.20;99.90;;;;;;5063354;28;20238;-78
2023/06/12 11:59:18;;;;;;;4.05;3.75;;;28.20;1.00;;;;;;5063306;28;20172;-78
2023/06/12 12:01:48;;;;;;;3.83;3.42;;;28.30;99.90;;;;;;5065133;28;20178;-78
2023/06/12 12:04:17;;;;;;;6.10;3.70;;;28.40;99.00;;;;;;5065589;28;20259;-78
2023/06/12 12:06:50;;;;;;;4.35;3.65;;;28.50;99.90;;;;;;5072282;28;20183;-77
2023/06/12 12:09:25;;;;;;;7.10;3.40;;;28.60;99.90;;;;;;5072105;28;20179;-77
2023/06/12 12:11:50;;;;;;;4.30;4.00;;;28.60;99.90;;;;;;5072514;28;20163;-77
2023/06/12 12:14:16;;;;;;;5.00;3.53;;;28.70;1.00;;;;;;5071963;28;20191;-78
2023/06/12 12:16:43;;;;;;;6.60;3.60;;;28.60;1.00;;;;;;5073815;28;20203;-77
2023/06/12 12:19:25;;;;;;;3.97;3.67;;;28.60;99.90;;;;;;5063304;28;20572;-78
2023/06/12 12:21:52;;;;;;;3.65;3.30;;;28.70;1.00;;;;;;5064299;28;20182;-78
2023/06/12 12:24:17;;;;;;;5.35;3.65;;;28.50;99.90;;;;;;5062232;28;20251;-78
2023/06/12 12:26:53;;;;;;;5.57;4.10;;;28.40;99.90;;;;;;5062009;28;20207;-78
2023/06/12 12:29:20;;;;;;;4.22;3.83;;;28.30;1.00;;;;;;5059484;28;20671;-78
2023/06/12 12:31:46;;;;;;;6.07;3.90;;;28.20;99.90;;;;;;5060751;28;20183;-78
2023/06/12 12:34:12;;;;;;;4.40;3.88;;;28.10;1.00;;;;;;5059859;28;20547;-78
2023/06/12 12:36:38;;;;;;;6.07;3.75;;;28.00;1.00;;;;;;5060694;28;20274;-78
2023/06/12 12:39:04;;;;;;;5.07;3.58;;;28.00;1.00;;;;;;5059809;28;20663;-78
2023/06/12 12:41:29;;;;;;;5.05;4.13;;;27.90;1.00;;;;;;5059237;28;20211;-77
2023/06/12 12:43:55;;;;;;;5.82;3.45;;;27.70;1.00;;;;;;5058791;28;20196;-77
2023/06/12 12:46:24;;;;;;;4.63;4.18;;;27.60;1.00;;;;;;5058960;28;20186;-78
2023/06/12 12:48:51;;;;;;;5.10;3.67;;;27.60;99.90;;;;;;5057219;28;20664;-78
2023/06/12 12:51:17;;;;;;;5.07;3.60;;;27.50;99.90;;;;;;5059880;28;20203;-78
2023/06/12 12:53:42;;;;;;;3.83;3.53;;;27.40;79.00;;;;;;5058770;28;20320;-78